sensor_id;sensor_type;location;lat;lon;timestamp;P1;durP1;ratioP1;P2;durP2;ratioP2
38611;SDS011;24368;52.156;20.788;2022-09-09T00:03:34;5.30;;;4.30;;
38611;SDS011;24368;52.156;20.788;2022-09-09T00:14:43;5.20;;;4.00;;
38611;SDS011;24368;52.156;20.788;2022-09-09T00:19:56;6.20;;;3.90;;
38611;SDS011;24368;52.156;20.788;2022-09-09T00:30:59;5.00;;;4.40;;
38611;SDS011;24368;52.156;20.788;2022-09-09T00:36:14;4.90;;;4.30;;
38611;SDS011;24368;52.156;20.788;2022-09-09T00:57:33;6.40;;;4.70;;
38611;SDS011;24368;52.156;20.788;2022-09-09T01:02:44;5.70;;;5.10;;
38611;SDS011;24368;52.156;20.788;2022-09-09T01:08:17;6.50;;;4.90;;
38611;SDS011;24368;52.156;20.788;2022-09-09T01:13:27;7.00;;;5.10;;
38611;SDS011;24368;52.156;20.788;2022-09-09T01:18:36;7.00;;;5.60;;
38611;SDS011;24368;52.156;20.788;2022-09-09T01:29:02;8.20;;;6.10;;
38611;SDS011;24368;52.156;20.788;2022-09-09T01:34:09;6.40;;;5.60;;
38611;SDS011;24368;52.156;20.788;2022-09-09T01:39:15;7.20;;;4.90;;
38611;SDS011;24368;52.156;20.788;2022-09-09T01:44:16;7.40;;;5.80;;
38611;SDS011;24368;52.156;20.788;2022-09-09T01:49:19;7.60;;;5.70;;
38611;SDS011;24368;52.156;20.788;2022-09-09T01:54:22;6.50;;;5.80;;
38611;SDS011;24368;52.156;20.788;2022-09-09T01:59:29;6.90;;;5.70;;
38611;SDS011;24368;52.156;20.788;2022-09-09T02:04:42;8.80;;;6.90;;
38611;SDS011;24368;52.156;20.788;2022-09-09T02:09:47;12.00;;;7.30;;
38611;SDS011;24368;52.156;20.788;2022-09-09T02:14:59;7.90;;;7.10;;
38611;SDS011;24368;52.156;20.788;2022-09-09T02:20:12;8.70;;;6.60;;
38611;SDS011;24368;52.156;20.788;2022-09-09T02:25:17;7.40;;;6.20;;
38611;SDS011;24368;52.156;20.788;2022-09-09T02:30:21;8.90;;;7.30;;
38611;SDS011;24368;52.156;20.788;2022-09-09T02:35:23;8.30;;;7.20;;
38611;SDS011;24368;52.156;20.788;2022-09-09T02:40:27;11.00;;;6.70;;
38611;SDS011;24368;52.156;20.788;2022-09-09T02:45:35;8.70;;;6.90;;
38611;SDS011;24368;52.156;20.788;2022-09-09T03:01:01;9.60;;;6.90;;
38611;SDS011;24368;52.156;20.788;2022-09-09T03:06:04;8.90;;;6.80;;
38611;SDS011;24368;52.156;20.788;2022-09-09T03:11:07;7.70;;;6.50;;
38611;SDS011;24368;52.156;20.788;2022-09-09T03:16:10;7.20;;;6.40;;
38611;SDS011;24368;52.156;20.788;2022-09-09T03:21:12;8.10;;;7.30;;
38611;SDS011;24368;52.156;20.788;2022-09-09T03:26:14;9.30;;;7.20;;
38611;SDS011;24368;52.156;20.788;2022-09-09T03:31:16;9.00;;;6.80;;
38611;SDS011;24368;52.156;20.788;2022-09-09T03:36:18;7.80;;;6.50;;
38611;SDS011;24368;52.156;20.788;2022-09-09T03:41:20;7.80;;;7.00;;
38611;SDS011;24368;52.156;20.788;2022-09-09T03:46:25;6.90;;;6.20;;
38611;SDS011;24368;52.156;20.788;2022-09-09T03:51:27;6.90;;;6.20;;
38611;SDS011;24368;52.156;20.788;2022-09-09T03:56:29;7.30;;;6.60;;
38611;SDS011;24368;52.156;20.788;2022-09-09T04:01:31;6.70;;;5.80;;
38611;SDS011;24368;52.156;20.788;2022-09-09T04:06:33;7.80;;;7.10;;
38611;SDS011;24368;52.156;20.788;2022-09-09T04:11:34;7.60;;;6.20;;
38611;SDS011;24368;52.156;20.788;2022-09-09T04:16:36;7.80;;;6.10;;
38611;SDS011;24368;52.156;20.788;2022-09-09T04:21:39;6.90;;;5.90;;
38611;SDS011;24368;52.156;20.788;2022-09-09T04:26:43;6.80;;;6.10;;
38611;SDS011;24368;52.156;20.788;2022-09-09T04:31:46;6.60;;;5.90;;
38611;SDS011;24368;52.156;20.788;2022-09-09T04:36:48;6.80;;;6.10;;
38611;SDS011;24368;52.156;20.788;2022-09-09T04:41:50;6.30;;;5.70;;
38611;SDS011;24368;52.156;20.788;2022-09-09T04:46:52;6.90;;;5.90;;
38611;SDS011;24368;52.156;20.788;2022-09-09T04:51:53;7.60;;;6.00;;
38611;SDS011;24368;52.156;20.788;2022-09-09T04:56:55;6.30;;;5.50;;
38611;SDS011;24368;52.156;20.788;2022-09-09T05:01:57;5.90;;;5.00;;
38611;SDS011;24368;52.156;20.788;2022-09-09T05:06:59;6.40;;;5.60;;
38611;SDS011;24368;52.156;20.788;2022-09-09T05:12:01;6.70;;;5.70;;
38611;SDS011;24368;52.156;20.788;2022-09-09T05:17:04;6.90;;;6.00;;
38611;SDS011;24368;52.156;20.788;2022-09-09T05:22:06;5.50;;;4.90;;
38611;SDS011;24368;52.156;20.788;2022-09-09T05:27:08;6.00;;;5.30;;
38611;SDS011;24368;52.156;20.788;2022-09-09T05:32:13;6.70;;;5.90;;
38611;SDS011;24368;52.156;20.788;2022-09-09T05:37:16;7.10;;;6.40;;
38611;SDS011;24368;52.156;20.788;2022-09-09T05:42:18;6.80;;;5.90;;
38611;SDS011;24368;52.156;20.788;2022-09-09T05:47:20;8.00;;;6.40;;
38611;SDS011;24368;52.156;20.788;2022-09-09T05:52:22;6.20;;;5.40;;
38611;SDS011;24368;52.156;20.788;2022-09-09T05:57:25;6.50;;;5.90;;
38611;SDS011;24368;52.156;20.788;2022-09-09T06:02:27;7.20;;;6.50;;
38611;SDS011;24368;52.156;20.788;2022-09-09T06:07:29;5.90;;;5.00;;
38611;SDS011;24368;52.156;20.788;2022-09-09T06:12:30;7.80;;;5.90;;
38611;SDS011;24368;52.156;20.788;2022-09-09T06:17:33;6.50;;;5.90;;
38611;SDS011;24368;52.156;20.788;2022-09-09T06:22:35;5.90;;;5.40;;
38611;SDS011;24368;52.156;20.788;2022-09-09T06:27:36;6.30;;;5.60;;
38611;SDS011;24368;52.156;20.788;2022-09-09T06:32:38;6.80;;;6.10;;
38611;SDS011;24368;52.156;20.788;2022-09-09T06:37:44;5.90;;;5.40;;
38611;SDS011;24368;52.156;20.788;2022-09-09T06:42:50;7.70;;;7.00;;
38611;SDS011;24368;52.156;20.788;2022-09-09T06:47:54;7.70;;;7.00;;
38611;SDS011;24368;52.156;20.788;2022-09-09T06:52:57;8.90;;;6.90;;
38611;SDS011;24368;52.156;20.788;2022-09-09T06:57:59;7.60;;;6.90;;
38611;SDS011;24368;52.156;20.788;2022-09-09T07:03:01;7.50;;;6.70;;
38611;SDS011;24368;52.156;20.788;2022-09-09T07:08:03;9.70;;;7.20;;
38611;SDS011;24368;52.156;20.788;2022-09-09T07:13:05;7.90;;;7.20;;
38611;SDS011;24368;52.156;20.788;2022-09-09T07:18:07;8.60;;;7.70;;
38611;SDS011;24368;52.156;20.788;2022-09-09T07:23:11;8.40;;;7.50;;
38611;SDS011;24368;52.156;20.788;2022-09-09T07:28:13;11.20;;;7.70;;
38611;SDS011;24368;52.156;20.788;2022-09-09T07:33:16;8.30;;;7.20;;
38611;SDS011;24368;52.156;20.788;2022-09-09T07:38:19;7.90;;;7.10;;
38611;SDS011;24368;52.156;20.788;2022-09-09T07:43:25;9.50;;;8.40;;
38611;SDS011;24368;52.156;20.788;2022-09-09T07:48:28;9.60;;;7.70;;
38611;SDS011;24368;52.156;20.788;2022-09-09T07:53:30;11.00;;;8.30;;
38611;SDS011;24368;52.156;20.788;2022-09-09T07:58:32;8.90;;;7.90;;
38611;SDS011;24368;52.156;20.788;2022-09-09T08:03:34;9.70;;;8.40;;
38611;SDS011;24368;52.156;20.788;2022-09-09T08:08:36;18.80;;;9.70;;
38611;SDS011;24368;52.156;20.788;2022-09-09T08:13:40;13.00;;;9.10;;
38611;SDS011;24368;52.156;20.788;2022-09-09T08:18:43;14.00;;;9.70;;
38611;SDS011;24368;52.156;20.788;2022-09-09T08:23:46;12.10;;;10.30;;
38611;SDS011;24368;52.156;20.788;2022-09-09T08:28:50;12.70;;;9.90;;
38611;SDS011;24368;52.156;20.788;2022-09-09T08:33:53;13.10;;;10.00;;
38611;SDS011;24368;52.156;20.788;2022-09-09T08:38:56;13.30;;;10.50;;
38611;SDS011;24368;52.156;20.788;2022-09-09T08:44:17;17.10;;;11.30;;
38611;SDS011;24368;52.156;20.788;2022-09-09T08:54:51;15.50;;;11.80;;
38611;SDS011;24368;52.156;20.788;2022-09-09T08:59:54;17.80;;;12.10;;
38611;SDS011;24368;52.156;20.788;2022-09-09T09:05:42;17.50;;;12.80;;
38611;SDS011;24368;52.156;20.788;2022-09-09T09:10:45;17.00;;;12.40;;
38611;SDS011;24368;52.156;20.788;2022-09-09T09:15:58;16.80;;;12.30;;
38611;SDS011;24368;52.156;20.788;2022-09-09T09:26:06;16.40;;;12.30;;
38611;SDS011;24368;52.156;20.788;2022-09-09T09:31:12;22.00;;;14.20;;
38611;SDS011;24368;52.156;20.788;2022-09-09T09:36:15;22.80;;;14.40;;
38611;SDS011;24368;52.156;20.788;2022-09-09T09:41:28;21.00;;;13.70;;
38611;SDS011;24368;52.156;20.788;2022-09-09T09:46:44;18.00;;;13.50;;
38611;SDS011;24368;52.156;20.788;2022-09-09T09:51:45;19.60;;;14.40;;
38611;SDS011;24368;52.156;20.788;2022-09-09T09:56:48;21.60;;;14.00;;
38611;SDS011;24368;52.156;20.788;2022-09-09T10:01:51;20.60;;;15.00;;
38611;SDS011;24368;52.156;20.788;2022-09-09T10:06:52;21.30;;;15.10;;
38611;SDS011;24368;52.156;20.788;2022-09-09T10:12:01;22.70;;;15.80;;
38611;SDS011;24368;52.156;20.788;2022-09-09T10:55:10;20.70;;;15.80;;
38611;SDS011;24368;52.156;20.788;2022-09-09T11:06:00;23.30;;;17.40;;
38611;SDS011;24368;52.156;20.788;2022-09-09T11:11:15;23.70;;;17.50;;
38611;SDS011;24368;52.156;20.788;2022-09-09T11:21:48;22.40;;;17.90;;
38611;SDS011;24368;52.156;20.788;2022-09-09T11:26:58;26.80;;;20.10;;
38611;SDS011;24368;52.156;20.788;2022-09-09T11:43:09;25.90;;;19.30;;
38611;SDS011;24368;52.156;20.788;2022-09-09T11:48:29;25.80;;;20.10;;
38611;SDS011;24368;52.156;20.788;2022-09-09T11:53:51;25.20;;;19.30;;
38611;SDS011;24368;52.156;20.788;2022-09-09T12:36:38;29.40;;;20.50;;
38611;SDS011;24368;52.156;20.788;2022-09-09T12:41:50;32.20;;;20.10;;
38611;SDS011;24368;52.156;20.788;2022-09-09T12:46:59;30.10;;;20.10;;
38611;SDS011;24368;52.156;20.788;2022-09-09T12:52:06;29.00;;;21.20;;
38611;SDS011;24368;52.156;20.788;2022-09-09T12:57:14;29.20;;;19.20;;
38611;SDS011;24368;52.156;20.788;2022-09-09T13:02:21;27.50;;;20.90;;
38611;SDS011;24368;52.156;20.788;2022-09-09T13:07:24;29.20;;;21.80;;
38611;SDS011;24368;52.156;20.788;2022-09-09T13:12:27;32.50;;;21.70;;
38611;SDS011;24368;52.156;20.788;2022-09-09T13:17:29;31.30;;;21.80;;
38611;SDS011;24368;52.156;20.788;2022-09-09T13:22:33;31.10;;;22.50;;
38611;SDS011;24368;52.156;20.788;2022-09-09T13:27:41;29.20;;;21.50;;
38611;SDS011;24368;52.156;20.788;2022-09-09T13:38:16;29.70;;;21.50;;
38611;SDS011;24368;52.156;20.788;2022-09-09T13:43:21;29.80;;;22.50;;
38611;SDS011;24368;52.156;20.788;2022-09-09T13:48:25;28.20;;;22.00;;
38611;SDS011;24368;52.156;20.788;2022-09-09T13:53:27;28.80;;;20.30;;
38611;SDS011;24368;52.156;20.788;2022-09-09T13:58:30;25.80;;;20.60;;
38611;SDS011;24368;52.156;20.788;2022-09-09T14:03:31;25.70;;;20.80;;
38611;SDS011;24368;52.156;20.788;2022-09-09T14:08:35;27.80;;;23.10;;
38611;SDS011;24368;52.156;20.788;2022-09-09T14:13:38;29.60;;;22.70;;
38611;SDS011;24368;52.156;20.788;2022-09-09T14:18:40;27.70;;;22.00;;
38611;SDS011;24368;52.156;20.788;2022-09-09T14:23:42;30.90;;;21.80;;
38611;SDS011;24368;52.156;20.788;2022-09-09T14:28:43;27.50;;;21.60;;
38611;SDS011;24368;52.156;20.788;2022-09-09T14:33:46;30.50;;;21.90;;
38611;SDS011;24368;52.156;20.788;2022-09-09T14:38:48;27.80;;;22.00;;
38611;SDS011;24368;52.156;20.788;2022-09-09T14:43:50;34.00;;;23.00;;
38611;SDS011;24368;52.156;20.788;2022-09-09T14:48:53;30.20;;;23.00;;
38611;SDS011;24368;52.156;20.788;2022-09-09T14:53:56;27.80;;;20.20;;
38611;SDS011;24368;52.156;20.788;2022-09-09T15:04:03;25.40;;;20.00;;
38611;SDS011;24368;52.156;20.788;2022-09-09T15:09:06;26.30;;;19.50;;
38611;SDS011;24368;52.156;20.788;2022-09-09T15:14:08;24.20;;;19.50;;
38611;SDS011;24368;52.156;20.788;2022-09-09T15:19:10;29.00;;;20.40;;
38611;SDS011;24368;52.156;20.788;2022-09-09T15:24:12;27.70;;;19.30;;
38611;SDS011;24368;52.156;20.788;2022-09-09T15:29:15;26.30;;;19.20;;
38611;SDS011;24368;52.156;20.788;2022-09-09T15:34:17;28.10;;;20.00;;
38611;SDS011;24368;52.156;20.788;2022-09-09T15:39:19;29.10;;;20.00;;
38611;SDS011;24368;52.156;20.788;2022-09-09T15:44:21;27.70;;;19.70;;
38611;SDS011;24368;52.156;20.788;2022-09-09T15:49:26;22.40;;;19.10;;
38611;SDS011;24368;52.156;20.788;2022-09-09T15:54:30;23.80;;;18.70;;
38611;SDS011;24368;52.156;20.788;2022-09-09T15:59:34;26.00;;;18.90;;
38611;SDS011;24368;52.156;20.788;2022-09-09T16:04:36;28.70;;;20.20;;
38611;SDS011;24368;52.156;20.788;2022-09-09T16:09:43;24.50;;;18.90;;
38611;SDS011;24368;52.156;20.788;2022-09-09T16:14:45;26.50;;;19.60;;
38611;SDS011;24368;52.156;20.788;2022-09-09T16:19:47;25.40;;;18.70;;
38611;SDS011;24368;52.156;20.788;2022-09-09T16:24:49;22.60;;;16.80;;
38611;SDS011;24368;52.156;20.788;2022-09-09T16:29:51;19.80;;;15.10;;
38611;SDS011;24368;52.156;20.788;2022-09-09T16:34:52;22.30;;;18.50;;
38611;SDS011;24368;52.156;20.788;2022-09-09T16:39:54;27.40;;;21.20;;
38611;SDS011;24368;52.156;20.788;2022-09-09T16:44:56;25.60;;;20.60;;
38611;SDS011;24368;52.156;20.788;2022-09-09T16:49:58;27.00;;;22.10;;
38611;SDS011;24368;52.156;20.788;2022-09-09T16:54:59;22.10;;;18.10;;
38611;SDS011;24368;52.156;20.788;2022-09-09T17:00:02;28.40;;;21.10;;
38611;SDS011;24368;52.156;20.788;2022-09-09T17:05:07;26.00;;;20.30;;
38611;SDS011;24368;52.156;20.788;2022-09-09T17:10:09;23.90;;;18.10;;
38611;SDS011;24368;52.156;20.788;2022-09-09T17:15:11;30.10;;;20.90;;
38611;SDS011;24368;52.156;20.788;2022-09-09T17:20:13;27.60;;;21.00;;
38611;SDS011;24368;52.156;20.788;2022-09-09T17:25:17;27.30;;;21.50;;
38611;SDS011;24368;52.156;20.788;2022-09-09T17:30:19;27.70;;;21.20;;
38611;SDS011;24368;52.156;20.788;2022-09-09T17:35:21;23.50;;;19.60;;
38611;SDS011;24368;52.156;20.788;2022-09-09T17:40:22;23.20;;;18.60;;
38611;SDS011;24368;52.156;20.788;2022-09-09T17:45:24;24.70;;;18.50;;
38611;SDS011;24368;52.156;20.788;2022-09-09T17:50:26;22.20;;;18.70;;
38611;SDS011;24368;52.156;20.788;2022-09-09T17:55:28;24.40;;;21.50;;
38611;SDS011;24368;52.156;20.788;2022-09-09T18:00:29;26.30;;;19.60;;
38611;SDS011;24368;52.156;20.788;2022-09-09T18:05:31;22.30;;;18.00;;
38611;SDS011;24368;52.156;20.788;2022-09-09T18:10:33;25.40;;;19.10;;
38611;SDS011;24368;52.156;20.788;2022-09-09T18:15:36;23.00;;;19.60;;
38611;SDS011;24368;52.156;20.788;2022-09-09T18:20:39;22.90;;;18.30;;
38611;SDS011;24368;52.156;20.788;2022-09-09T18:25:42;24.00;;;18.50;;
38611;SDS011;24368;52.156;20.788;2022-09-09T18:30:45;22.40;;;18.80;;
38611;SDS011;24368;52.156;20.788;2022-09-09T18:35:47;24.70;;;17.90;;
38611;SDS011;24368;52.156;20.788;2022-09-09T18:40:49;20.30;;;17.40;;
38611;SDS011;24368;52.156;20.788;2022-09-09T18:45:51;21.60;;;19.00;;
38611;SDS011;24368;52.156;20.788;2022-09-09T18:50:52;24.90;;;19.10;;
38611;SDS011;24368;52.156;20.788;2022-09-09T18:55:58;24.70;;;18.60;;
38611;SDS011;24368;52.156;20.788;2022-09-09T19:01:02;23.70;;;17.30;;
38611;SDS011;24368;52.156;20.788;2022-09-09T19:06:11;21.50;;;16.40;;
38611;SDS011;24368;52.156;20.788;2022-09-09T19:11:16;18.10;;;15.30;;
38611;SDS011;24368;52.156;20.788;2022-09-09T19:16:20;18.80;;;15.60;;
38611;SDS011;24368;52.156;20.788;2022-09-09T19:21:24;17.10;;;14.90;;
38611;SDS011;24368;52.156;20.788;2022-09-09T19:26:32;20.40;;;15.50;;
38611;SDS011;24368;52.156;20.788;2022-09-09T19:31:41;15.90;;;13.60;;
38611;SDS011;24368;52.156;20.788;2022-09-09T19:36:45;17.20;;;14.00;;
38611;SDS011;24368;52.156;20.788;2022-09-09T19:41:47;15.60;;;13.90;;
38611;SDS011;24368;52.156;20.788;2022-09-09T19:46:50;15.20;;;13.60;;
38611;SDS011;24368;52.156;20.788;2022-09-09T19:51:51;16.20;;;14.50;;
38611;SDS011;24368;52.156;20.788;2022-09-09T19:56:55;17.60;;;13.90;;
38611;SDS011;24368;52.156;20.788;2022-09-09T20:01:57;16.20;;;14.50;;
38611;SDS011;24368;52.156;20.788;2022-09-09T20:06:59;15.10;;;13.60;;
38611;SDS011;24368;52.156;20.788;2022-09-09T20:12:00;14.30;;;12.70;;
38611;SDS011;24368;52.156;20.788;2022-09-09T20:17:02;15.00;;;13.10;;
38611;SDS011;24368;52.156;20.788;2022-09-09T20:22:04;16.50;;;14.40;;
38611;SDS011;24368;52.156;20.788;2022-09-09T20:27:06;14.90;;;13.40;;
38611;SDS011;24368;52.156;20.788;2022-09-09T20:32:09;16.30;;;12.90;;
38611;SDS011;24368;52.156;20.788;2022-09-09T20:37:12;13.30;;;12.00;;
38611;SDS011;24368;52.156;20.788;2022-09-09T20:42:14;14.20;;;11.90;;
38611;SDS011;24368;52.156;20.788;2022-09-09T20:47:15;14.80;;;13.10;;
38611;SDS011;24368;52.156;20.788;2022-09-09T20:52:17;14.80;;;13.30;;
38611;SDS011;24368;52.156;20.788;2022-09-09T20:57:20;15.80;;;13.80;;
38611;SDS011;24368;52.156;20.788;2022-09-09T21:02:23;13.90;;;11.60;;
38611;SDS011;24368;52.156;20.788;2022-09-09T21:07:25;12.30;;;11.00;;
38611;SDS011;24368;52.156;20.788;2022-09-09T21:12:27;14.20;;;10.60;;
38611;SDS011;24368;52.156;20.788;2022-09-09T21:17:31;11.90;;;10.70;;
38611;SDS011;24368;52.156;20.788;2022-09-09T21:22:33;13.20;;;11.60;;
38611;SDS011;24368;52.156;20.788;2022-09-09T21:27:35;13.70;;;12.00;;
38611;SDS011;24368;52.156;20.788;2022-09-09T21:32:37;13.20;;;11.30;;
38611;SDS011;24368;52.156;20.788;2022-09-09T21:37:39;13.70;;;11.70;;
38611;SDS011;24368;52.156;20.788;2022-09-09T21:42:42;12.80;;;11.50;;
38611;SDS011;24368;52.156;20.788;2022-09-09T21:47:44;13.40;;;12.00;;
38611;SDS011;24368;52.156;20.788;2022-09-09T21:52:52;12.90;;;10.70;;
38611;SDS011;24368;52.156;20.788;2022-09-09T21:57:54;14.10;;;12.00;;
38611;SDS011;24368;52.156;20.788;2022-09-09T22:02:57;11.70;;;10.20;;
38611;SDS011;24368;52.156;20.788;2022-09-09T22:07:59;12.40;;;11.10;;
38611;SDS011;24368;52.156;20.788;2022-09-09T22:13:01;13.40;;;11.20;;
38611;SDS011;24368;52.156;20.788;2022-09-09T22:18:03;12.50;;;11.20;;
38611;SDS011;24368;52.156;20.788;2022-09-09T22:23:05;13.20;;;10.50;;
38611;SDS011;24368;52.156;20.788;2022-09-09T22:28:07;11.40;;;10.20;;
38611;SDS011;24368;52.156;20.788;2022-09-09T22:33:10;12.30;;;10.90;;
38611;SDS011;24368;52.156;20.788;2022-09-09T22:38:12;12.40;;;11.10;;
38611;SDS011;24368;52.156;20.788;2022-09-09T22:43:18;11.40;;;10.30;;
38611;SDS011;24368;52.156;20.788;2022-09-09T22:48:21;12.30;;;11.00;;
38611;SDS011;24368;52.156;20.788;2022-09-09T22:53:24;11.90;;;10.50;;
38611;SDS011;24368;52.156;20.788;2022-09-09T22:58:26;12.60;;;11.30;;
38611;SDS011;24368;52.156;20.788;2022-09-09T23:03:30;14.30;;;11.90;;
38611;SDS011;24368;52.156;20.788;2022-09-09T23:08:34;14.00;;;12.00;;
38611;SDS011;24368;52.156;20.788;2022-09-09T23:13:38;12.80;;;11.50;;
38611;SDS011;24368;52.156;20.788;2022-09-09T23:18:42;12.80;;;11.30;;
38611;SDS011;24368;52.156;20.788;2022-09-09T23:23:45;11.70;;;10.30;;
38611;SDS011;24368;52.156;20.788;2022-09-09T23:28:47;13.00;;;11.20;;
38611;SDS011;24368;52.156;20.788;2022-09-09T23:33:50;13.20;;;11.50;;
38611;SDS011;24368;52.156;20.788;2022-09-09T23:38:56;11.60;;;10.40;;
38611;SDS011;24368;52.156;20.788;2022-09-09T23:44:00;12.50;;;11.20;;
38611;SDS011;24368;52.156;20.788;2022-09-09T23:49:03;14.20;;;11.30;;
38611;SDS011;24368;52.156;20.788;2022-09-09T23:54:08;13.50;;;12.00;;
38611;SDS011;24368;52.156;20.788;2022-09-09T23:59:10;11.80;;;10.60;;
